Terminal Aerodrome Forecast
Issued by NWS Omaha/Valley, NE

Home | Current Version | Previous Version | Graphics & Text | Print | Product List | Glossary On
Versions: 1 2 3 4 5 6 7 8 9 10 11 12 13 14 15 16 17 18 19 20 21 22 23 24 25 26 27 28 29 30 31 32 33 34 35 36 37 38 39 40 41 42 43 44 45 46 47 48 49 50
267
FTUS43 KOAX 210520
TAFOFK
TAF
KOFK 210520Z 2106/2206 14004KT 1SM BR OVC003
     FM210800 16003KT 1/2SM -DZ FG OVC002
     FM211100 00000KT 1SM BR OVC004
     FM211300 26004KT 2SM BR OVC008
     FM211500 27006KT 4SM BR OVC015
     FM211900 28007KT P6SM SCT040=

USA.gov is the U.S. government's official web portal to all federal, state and local government web resources and services.